Adak, AK

6:12 PM HDT on August 25, 2016 (GMT -0900)
Adak | | Change Station

Elev 13 ft 51.88 °N, 176.65 °W | Updated 16 minutes ago

Overcast
Overcast
55 °F
Feels Like 55 °F
N
15
Wind Variable Wind from South

Today
High -- | Low -- °F
--% Chance of Precip.
Yesterday
High -- | Low -- °F
Precip. -- in
Pressure 30.09 in
Visibility 7.0 miles
Clouds Overcast 1000 ft
Dew Point 48 °F
Humidity 77%
Rainfall 0.19 in
Snow Depth Not available.
7:48 AM 9:47 PM
Last Quarter, 39% visible
METAR PADK 260256Z AUTO 19013KT 7SM OVC010 13/09 A3009 RMK AO1 P0001 60001 57007
Pressure 30.09 in
Visibility 7.0 miles
Clouds Overcast 1000 ft
Dew Point 48 °F
Humidity 77%
Rainfall 0.19 in
Snow Depth Not available.
7:48 AM 9:47 PM
Last Quarter, 39% visible
METAR PADK 260256Z AUTO 19013KT 7SM OVC010 13/09 A3009 RMK AO1 P0001 60001 57007

10-Day Weather Forecast

Almanac

Astronomy

Aug. 25, 2016 Rise Set
Actual Time
Civil Twilight
Nautical Twilight
Astronomical Twilight
Moon
Length of Visible Light
Length of Day
Tomorrow will be .
, % of the Moon is Illuminated

Today's Extremes

State Highs State Lows

Community

WunderPhotos

Upload Photos

1,935,036 photos uploaded!

WunderBlog® & News

Nearby

Air Quality

  Air Quality AQ Index Pollutant
Not available.

Snow Depth

Station Depth Elevation

Earthquake Activity

City Distance Mag. Time & Date
Minimum magnitude displayed is 2.5.

Coastal Water Temperatures

Place Temperature

Stations

Nearby Weather Stations

Station Location Temp. Windchill Dew Point Humidity Wind Precip. Elev Updated Type
                   

Watches & Warnings

There are currently no watches in effect.